createdAt,value
2018-10-12T00:01:22.896Z,15.30
2018-10-12T00:03:53.939Z,15.20
2018-10-12T00:06:23.856Z,15.20
2018-10-12T00:08:54.768Z,15.20
2018-10-12T00:11:24.720Z,15.20
2018-10-12T00:13:54.668Z,15.20
2018-10-12T00:16:24.816Z,15.10
2018-10-12T00:18:55.656Z,15.10
2018-10-12T00:21:27.616Z,15.10
2018-10-12T00:23:57.533Z,15.10
2018-10-12T00:26:28.672Z,15.00
2018-10-12T00:28:58.564Z,15.00
2018-10-12T00:31:29.439Z,15.10
2018-10-12T00:34:03.688Z,15.20
2018-10-12T00:36:33.596Z,15.20
2018-10-12T00:39:05.648Z,15.20
2018-10-12T00:41:35.864Z,15.20
2018-10-12T00:44:05.913Z,15.30
2018-10-12T00:46:36.108Z,15.30
2018-10-12T00:49:05.976Z,15.30
2018-10-12T00:51:35.984Z,15.20
2018-10-12T00:54:06.900Z,15.20
2018-10-12T00:56:37.822Z,15.10
2018-10-12T00:59:07.781Z,15.10
2018-10-12T01:01:49.316Z,15.00
2018-10-12T01:04:19.549Z,14.90
2018-10-12T01:06:49.730Z,14.90
2018-10-12T01:09:22.952Z,14.90
2018-10-12T01:12:13.736Z,14.90
2018-10-12T01:14:47.840Z,14.90
2018-10-12T01:17:23.096Z,14.90
2018-10-12T01:19:54.792Z,14.80
2018-10-12T01:22:29.639Z,14.80
2018-10-12T01:25:00.944Z,14.80
2018-10-12T01:27:31.163Z,14.90
2018-10-12T01:30:01.096Z,15.00
2018-10-12T01:32:36.360Z,15.00
2018-10-12T01:35:06.156Z,15.00
2018-10-12T01:37:36.012Z,14.90
2018-10-12T01:40:07.008Z,14.90
2018-10-12T01:42:36.832Z,14.80
2018-10-12T01:45:06.660Z,14.70
2018-10-12T01:47:36.580Z,14.70
2018-10-12T01:50:06.504Z,14.70
2018-10-12T01:52:38.336Z,14.90
2018-10-12T01:55:08.177Z,14.90
2018-10-12T01:57:38.092Z,15.20
2018-10-12T02:00:08.268Z,15.40
2018-10-12T02:02:40.512Z,15.50
2018-10-12T02:05:11.456Z,15.60
2018-10-12T02:07:41.312Z,15.70
2018-10-12T02:10:16.308Z,15.70
2018-10-12T02:12:46.272Z,15.70
2018-10-12T02:15:18.183Z,15.80
2018-10-12T02:17:48.044Z,15.70
2018-10-12T02:20:17.976Z,15.70
2018-10-12T02:22:47.848Z,15.70
2018-10-12T02:25:18.668Z,15.60
2018-10-12T02:27:48.544Z,15.80
2018-10-12T02:30:18.744Z,15.80
2018-10-12T02:32:48.712Z,15.80
2018-10-12T02:35:20.628Z,15.70
2018-10-12T02:37:51.724Z,15.60
2018-10-12T02:40:21.616Z,15.50
2018-10-12T02:42:51.568Z,15.40
2018-10-12T02:45:22.468Z,15.30
2018-10-12T02:47:54.364Z,15.30
2018-10-12T02:50:24.853Z,15.20
2018-10-12T02:52:59.062Z,15.20
2018-10-12T02:55:29.209Z,15.10
2018-10-12T02:57:59.126Z,15.10
2018-10-12T03:00:30.437Z,14.90
2018-10-12T03:03:05.844Z,14.80
2018-10-12T03:05:40.525Z,14.80
2018-10-12T03:08:10.408Z,14.70
2018-10-12T03:10:41.360Z,14.70
2018-10-12T03:13:12.324Z,14.60
2018-10-12T03:15:42.302Z,14.60
2018-10-12T03:18:12.400Z,14.40
2018-10-12T03:20:45.420Z,14.30
2018-10-12T03:23:16.365Z,14.30
2018-10-12T03:25:46.352Z,14.20
2018-10-12T03:28:25.500Z,14.00
2018-10-12T03:30:55.608Z,13.90
2018-10-12T03:33:27.728Z,13.70
2018-10-12T03:35:58.823Z,13.50
2018-10-12T03:38:28.836Z,13.40
2018-10-12T03:40:59.876Z,13.30
2018-10-12T03:43:29.844Z,13.30
2018-10-12T03:46:01.776Z,13.20
2018-10-12T03:48:31.683Z,12.90
2018-10-12T03:51:05.411Z,12.80
2018-10-12T03:53:40.326Z,12.70
2018-10-12T03:56:10.760Z,12.60
2018-10-12T03:58:41.704Z,12.60
2018-10-12T04:01:11.620Z,12.60
2018-10-12T04:03:41.456Z,12.30
2018-10-12T04:06:11.296Z,12.10
2018-10-12T04:08:44.956Z,11.90
2018-10-12T04:11:16.924Z,11.90
2018-10-12T04:13:47.822Z,12.00
2018-10-12T04:16:17.723Z,12.10
2018-10-12T04:18:47.704Z,12.10
2018-10-12T04:21:18.644Z,12.10
2018-10-12T04:23:48.560Z,12.10
2018-10-12T04:26:18.483Z,12.20
2018-10-12T04:28:48.380Z,12.30
2018-10-12T04:31:18.270Z,12.40
2018-10-12T04:33:48.092Z,12.40
2018-10-12T04:36:25.096Z,12.30
2018-10-12T04:40:09.589Z,12.30
2018-10-12T04:42:39.489Z,12.20
2018-10-12T04:45:09.336Z,11.80
2018-10-12T04:47:39.224Z,11.70
2018-10-12T04:50:10.180Z,11.60
2018-10-12T04:52:39.956Z,11.40
2018-10-12T04:55:11.817Z,11.30
2018-10-12T04:57:46.937Z,11.10
2018-10-12T05:00:33.788Z,11.00
2018-10-12T05:03:11.085Z,10.90
2018-10-12T05:05:44.140Z,10.90
2018-10-12T05:08:14.045Z,10.90
2018-10-12T05:10:47.720Z,11.00
2018-10-12T05:13:20.700Z,11.00
2018-10-12T05:15:56.381Z,11.10
2018-10-12T05:18:28.264Z,11.00
2018-10-12T05:20:58.674Z,10.90
2018-10-12T05:23:35.625Z,10.70
2018-10-12T05:26:08.996Z,10.60
2018-10-12T05:28:42.091Z,10.60
2018-10-12T05:31:17.568Z,10.60
2018-10-12T05:34:10.244Z,10.70
2018-10-12T05:36:45.721Z,10.80
2018-10-12T05:39:17.573Z,10.90
2018-10-12T05:41:47.484Z,10.90
2018-10-12T05:44:23.988Z,10.80
2018-10-12T05:46:53.760Z,10.70
2018-10-12T05:50:04.941Z,10.60
2018-10-12T05:52:46.122Z,10.50
2018-10-12T05:55:19.440Z,10.50
2018-10-12T05:57:50.296Z,10.60
2018-10-12T06:00:20.224Z,10.60
2018-10-12T06:02:52.024Z,10.60
2018-10-12T06:05:22.916Z,10.70
2018-10-12T06:07:52.828Z,10.80
2018-10-12T06:10:22.812Z,11.00
2018-10-12T06:12:54.544Z,11.10
2018-10-12T06:15:26.412Z,11.20
2018-10-12T06:17:57.180Z,11.20
2018-10-12T06:20:29.119Z,11.20
2018-10-12T06:23:00.984Z,11.30
2018-10-12T06:25:30.784Z,11.20
2018-10-12T06:28:00.696Z,11.30
2018-10-12T06:30:32.544Z,11.30
2018-10-12T06:33:04.567Z,11.40
2018-10-12T06:35:34.196Z,11.60
2018-10-12T06:38:05.068Z,11.90
2018-10-12T06:40:35.901Z,12.40
2018-10-12T06:43:05.653Z,13.10
2018-10-12T06:45:42.427Z,13.80
2018-10-12T06:48:22.025Z,14.30
2018-10-12T06:50:51.852Z,14.80
2018-10-12T06:53:25.412Z,15.40
2018-10-12T06:55:58.364Z,16.00
2018-10-12T06:58:28.228Z,16.50
2018-10-12T07:00:59.028Z,17.00
2018-10-12T07:03:28.892Z,17.50
2018-10-12T07:05:59.371Z,17.90
2018-10-12T07:08:29.228Z,18.30
2018-10-12T07:11:02.712Z,18.60
2018-10-12T07:13:33.537Z,18.80
2018-10-12T07:16:03.239Z,19.00
2018-10-12T07:18:33.100Z,19.10
2018-10-12T07:21:09.920Z,19.40
2018-10-12T07:23:45.728Z,19.60
2018-10-12T07:26:15.536Z,19.80
2018-10-12T07:28:46.340Z,19.90
2018-10-12T07:31:26.463Z,20.10
2018-10-12T07:34:08.956Z,20.50
2018-10-12T07:36:44.136Z,20.90
2018-10-12T07:39:24.571Z,21.40
2018-10-12T07:41:57.617Z,21.50
2018-10-12T07:44:27.372Z,21.80
2018-10-12T07:47:00.248Z,22.20
2018-10-12T07:49:46.180Z,22.30
2018-10-12T07:52:44.508Z,22.90
2018-10-12T07:55:18.703Z,23.60
2018-10-12T07:57:50.516Z,23.70
2018-10-12T08:00:20.424Z,23.40
2018-10-12T08:02:51.176Z,23.30
2018-10-12T08:05:22.013Z,23.70
2018-10-12T08:07:51.823Z,23.70
2018-10-12T08:10:21.596Z,23.80
2018-10-12T08:12:51.353Z,24.00
2018-10-12T08:15:33.314Z,24.50
2018-10-12T08:18:03.092Z,24.80
2018-10-12T08:20:34.092Z,25.20
2018-10-12T08:23:03.672Z,25.20
2018-10-12T08:25:35.826Z,25.40
2018-10-12T08:28:06.675Z,26.20
2018-10-12T08:30:38.452Z,26.50
2018-10-12T08:33:15.236Z,26.90
2018-10-12T08:35:45.112Z,27.50
2018-10-12T08:38:14.936Z,27.80
2018-10-12T08:40:44.716Z,27.60
2018-10-12T08:43:14.576Z,27.50
2018-10-12T08:45:45.379Z,27.40
2018-10-12T08:48:15.120Z,27.80
2018-10-12T08:50:44.952Z,28.20
2018-10-12T08:53:14.741Z,28.40
2018-10-12T08:55:45.503Z,29.10
2018-10-12T08:58:16.321Z,30.10
2018-10-12T09:00:46.128Z,30.60
2018-10-12T09:03:17.888Z,30.80
2018-10-12T09:05:48.724Z,30.70
2018-10-12T09:08:23.580Z,30.70
2018-10-12T09:11:09.400Z,31.10
2018-10-12T09:13:44.704Z,31.10
2018-10-12T09:16:16.839Z,31.10
2018-10-12T09:18:46.588Z,30.70
2018-10-12T09:21:16.372Z,31.40
2018-10-12T09:23:47.262Z,33.00
2018-10-12T09:26:18.043Z,34.30
2018-10-12T09:28:47.852Z,34.40
2018-10-12T09:31:17.667Z,33.90
2018-10-12T09:33:48.504Z,33.30
2018-10-12T09:36:25.778Z,33.00
2018-10-12T09:38:55.631Z,32.30
2018-10-12T09:41:25.516Z,32.50
2018-10-12T09:43:55.306Z,32.60
2018-10-12T09:46:27.104Z,32.80
2018-10-12T09:48:58.935Z,33.00
2018-10-12T09:51:29.911Z,33.40
2018-10-12T09:54:05.212Z,34.10
2018-10-12T09:56:47.084Z,35.10
2018-10-12T09:59:20.372Z,36.30
2018-10-12T10:01:55.537Z,36.30
2018-10-12T10:04:36.752Z,36.10
2018-10-12T10:07:11.152Z,36.40
2018-10-12T10:09:42.907Z,36.70
2018-10-12T10:12:17.163Z,36.90
2018-10-12T10:14:47.019Z,36.40
2018-10-12T10:17:16.776Z,36.50
2018-10-12T10:19:46.580Z,36.40
2018-10-12T10:22:17.394Z,36.50
2018-10-12T10:25:13.129Z,36.30
2018-10-12T10:27:44.850Z,37.10
2018-10-12T10:30:14.698Z,38.00
2018-10-12T10:32:45.512Z,38.80
2018-10-12T10:35:18.483Z,38.40
2018-10-12T10:37:48.356Z,38.40
2018-10-12T10:40:18.211Z,39.00
2018-10-12T10:42:49.983Z,38.90
2018-10-12T10:45:20.748Z,39.80
2018-10-12T10:47:51.327Z,40.10
2018-10-12T10:50:24.320Z,40.20
2018-10-12T10:52:54.160Z,40.20
2018-10-12T10:55:24.095Z,39.70
2018-10-12T10:57:57.332Z,38.50
2018-10-12T11:00:43.300Z,38.10
2018-10-12T11:03:22.592Z,38.80
2018-10-12T11:06:07.071Z,40.30
2018-10-12T11:08:37.844Z,41.10
2018-10-12T11:11:07.608Z,39.90
2018-10-12T11:13:38.366Z,39.30
2018-10-12T11:16:12.307Z,39.70
2018-10-12T11:18:43.167Z,38.90
2018-10-12T11:21:13.956Z,39.70
2018-10-12T11:23:45.699Z,40.10
2018-10-12T11:26:16.511Z,39.90
2018-10-12T11:28:46.207Z,39.50
2018-10-12T11:31:17.003Z,38.60
2018-10-12T11:33:47.859Z,39.50
2018-10-12T11:36:17.655Z,39.50
2018-10-12T11:38:51.155Z,38.40
2018-10-12T11:41:20.972Z,37.50
2018-10-12T11:44:04.288Z,37.30
2018-10-12T11:46:34.116Z,37.00
2018-10-12T11:49:03.907Z,36.20
2018-10-12T11:51:33.722Z,34.50
2018-10-12T11:54:03.462Z,33.90
2018-10-12T11:56:37.048Z,34.10
2018-10-12T11:59:08.799Z,35.30
2018-10-12T12:01:44.376Z,37.00
2018-10-12T12:04:16.213Z,37.50
2018-10-12T12:06:46.028Z,38.10
2018-10-12T12:09:16.796Z,39.30
2018-10-12T12:11:46.552Z,40.10
2018-10-12T12:14:16.407Z,40.10
2018-10-12T12:16:47.201Z,39.80
2018-10-12T12:19:17.947Z,38.70
2018-10-12T12:21:51.944Z,38.40
2018-10-12T12:24:24.828Z,38.50
2018-10-12T12:26:54.632Z,38.60
2018-10-12T12:29:26.364Z,39.20
2018-10-12T12:31:56.118Z,40.10
2018-10-12T12:34:25.894Z,39.90
2018-10-12T12:37:07.820Z,40.70
2018-10-12T12:39:39.584Z,40.90
2018-10-12T12:42:19.964Z,39.60
2018-10-12T12:44:49.751Z,39.30
2018-10-12T12:47:20.637Z,39.90
2018-10-12T12:49:52.608Z,39.10
2018-10-12T12:52:22.484Z,38.10
2018-10-12T12:54:52.340Z,39.00
2018-10-12T12:57:22.072Z,38.80
2018-10-12T12:59:52.964Z,38.70
2018-10-12T13:02:26.493Z,37.80
2018-10-12T13:04:56.228Z,37.00
2018-10-12T13:07:27.068Z,37.50
2018-10-12T13:10:02.428Z,38.50
2018-10-12T13:12:32.275Z,38.50
2018-10-12T13:15:03.068Z,37.30
2018-10-12T13:17:32.899Z,36.70
2018-10-12T13:20:02.656Z,36.20
2018-10-12T13:22:32.428Z,36.30
2018-10-12T13:25:03.280Z,37.00
2018-10-12T13:27:33.136Z,37.60
2018-10-12T13:30:20.920Z,38.10
2018-10-12T13:32:57.496Z,38.30
2018-10-12T13:35:27.352Z,37.30
2018-10-12T13:37:59.596Z,37.50
2018-10-12T13:40:31.564Z,38.00
2018-10-12T13:43:01.395Z,38.90
2018-10-12T13:45:34.905Z,39.50
2018-10-12T13:48:08.500Z,39.20
2018-10-12T13:50:40.383Z,38.40
2018-10-12T13:53:10.155Z,38.60
2018-10-12T13:55:40.084Z,39.00
2018-10-12T13:58:10.828Z,38.30
2018-10-12T14:00:40.623Z,37.70
2018-10-12T14:03:18.379Z,37.30
2018-10-12T14:05:48.310Z,36.70
2018-10-12T14:08:19.077Z,36.50
2018-10-12T14:10:50.853Z,36.70
2018-10-12T14:13:20.640Z,37.40
2018-10-12T14:16:02.475Z,37.70
2018-10-12T14:18:32.393Z,37.40
2018-10-12T14:21:14.895Z,37.30
2018-10-12T14:23:44.692Z,36.50
2018-10-12T14:26:15.524Z,35.40
2018-10-12T14:28:46.322Z,34.70
2018-10-12T14:31:17.188Z,34.40
2018-10-12T14:36:51.755Z,33.90
2018-10-12T14:39:25.471Z,34.10
2018-10-12T14:41:55.392Z,34.20
2018-10-12T14:44:30.904Z,33.40
2018-10-12T14:47:02.768Z,33.20
2018-10-12T14:49:34.608Z,33.30
2018-10-12T14:52:04.369Z,33.50
2018-10-12T14:54:34.271Z,34.00
2018-10-12T14:57:10.176Z,33.80
2018-10-12T14:59:41.063Z,33.00
2018-10-12T15:02:14.404Z,32.70
2018-10-12T15:04:44.299Z,32.60
2018-10-12T15:07:16.091Z,32.40
2018-10-12T15:09:45.856Z,32.20
2018-10-12T15:12:19.200Z,32.20
2018-10-12T15:15:06.140Z,32.00
2018-10-12T15:17:38.084Z,32.30
2018-10-12T15:20:16.036Z,32.40
2018-10-12T15:22:54.032Z,31.90
2018-10-12T15:25:27.577Z,31.80
2018-10-12T15:27:57.452Z,31.80
2018-10-12T15:30:32.604Z,31.50
2018-10-12T15:33:07.976Z,31.20
2018-10-12T15:35:37.803Z,30.80
2018-10-12T15:38:07.535Z,30.60
2018-10-12T15:40:37.572Z,30.20
2018-10-12T15:43:09.897Z,29.60
2018-10-12T15:45:40.534Z,29.00
2018-10-12T15:48:16.299Z,28.50
2018-10-12T15:50:46.195Z,28.00
2018-10-12T15:53:19.720Z,27.50
2018-10-12T15:55:53.805Z,27.20
2018-10-12T15:58:23.555Z,26.70
2018-10-12T16:00:53.415Z,26.40
2018-10-12T16:03:23.199Z,26.30
2018-10-12T16:05:53.031Z,26.10
2018-10-12T16:08:22.830Z,25.60
2018-10-12T16:10:52.655Z,25.10
2018-10-12T16:13:29.971Z,24.70
2018-10-12T16:16:00.723Z,24.30
2018-10-12T16:18:30.490Z,23.80
2018-10-12T16:21:00.300Z,23.10
2018-10-12T16:23:32.248Z,22.40
2018-10-12T16:26:21.091Z,21.80
2018-10-12T16:28:52.343Z,21.20
2018-10-12T16:31:22.171Z,20.80
2018-10-12T16:33:53.027Z,20.40
2018-10-12T16:36:22.885Z,20.00
2018-10-12T16:38:52.819Z,19.70
2018-10-12T16:41:22.656Z,19.50
2018-10-12T16:43:54.511Z,19.20
2018-10-12T16:46:24.332Z,19.00
2018-10-12T16:48:54.167Z,18.80
2018-10-12T16:51:24.975Z,18.40
2018-10-12T16:53:54.733Z,18.10
2018-10-12T16:56:26.575Z,17.90
2018-10-12T16:58:56.355Z,17.80
2018-10-12T17:01:28.255Z,17.60
2018-10-12T17:03:58.019Z,17.40
2018-10-12T17:06:28.947Z,17.20
2018-10-12T17:08:58.779Z,17.00
2018-10-12T17:11:31.851Z,16.80
2018-10-12T17:14:01.695Z,16.80
2018-10-12T17:16:33.563Z,16.70
2018-10-12T17:19:05.874Z,16.60
2018-10-12T17:21:39.503Z,16.40
2018-10-12T17:24:13.192Z,16.30
2018-10-12T17:26:43.020Z,16.20
2018-10-12T17:29:13.836Z,16.10
2018-10-12T17:31:43.719Z,15.90
2018-10-12T17:34:13.611Z,15.80
2018-10-12T17:36:43.436Z,15.70
2018-10-12T17:39:21.648Z,15.60
2018-10-12T17:42:11.663Z,15.50
2018-10-12T17:44:42.523Z,15.40
2018-10-12T17:47:13.852Z,15.40
2018-10-12T17:49:44.071Z,15.40
2018-10-12T17:52:30.483Z,15.40
2018-10-12T17:55:03.575Z,15.40
2018-10-12T17:57:35.362Z,15.30
2018-10-12T18:00:05.374Z,15.30
2018-10-12T18:02:37.159Z,15.20
2018-10-12T18:05:07.887Z,15.10
2018-10-12T18:07:42.604Z,15.10
2018-10-12T18:12:53.775Z,15.00
2018-10-12T18:15:23.649Z,14.90
2018-10-12T18:17:53.607Z,14.80
2018-10-12T18:20:31.575Z,14.70
2018-10-12T18:23:15.951Z,14.60
2018-10-12T18:25:57.300Z,14.60
2018-10-12T18:28:29.187Z,14.50
2018-10-12T18:31:07.363Z,14.40
2018-10-12T18:33:41.755Z,14.30
2018-10-12T18:36:15.700Z,14.20
2018-10-12T18:38:51.424Z,14.10
2018-10-12T18:41:21.377Z,14.20
2018-10-12T18:43:51.255Z,14.10
2018-10-12T18:46:21.179Z,14.10
2018-10-12T18:48:51.105Z,14.00
2018-10-12T18:51:24.667Z,14.00
2018-10-12T18:54:11.578Z,14.00
2018-10-12T18:56:42.471Z,13.90
2018-10-12T18:59:12.379Z,13.70
2018-10-12T19:01:42.274Z,13.60
2018-10-12T19:04:13.251Z,13.60
2018-10-12T19:06:43.089Z,13.50
2018-10-12T19:09:17.527Z,13.50
2018-10-12T19:11:49.362Z,13.40
2018-10-12T19:14:21.235Z,13.50
2018-10-12T19:16:54.393Z,13.40
2018-10-12T19:19:27.427Z,13.50
2018-10-12T19:22:02.648Z,14.20
2018-10-12T19:24:34.490Z,15.00
2018-10-12T19:27:08.159Z,15.50
2018-10-12T19:29:40.015Z,15.70
2018-10-12T19:32:10.923Z,15.80
2018-10-12T19:34:40.821Z,15.80
2018-10-12T19:37:20.901Z,15.90
2018-10-12T19:39:50.832Z,15.90
2018-10-12T19:42:20.727Z,15.90
2018-10-12T19:44:53.043Z,15.80
2018-10-12T19:47:23.927Z,15.70
2018-10-12T19:49:53.851Z,15.70
2018-10-12T19:52:25.747Z,15.70
2018-10-12T19:54:56.659Z,15.60
2018-10-12T19:57:28.515Z,15.50
2018-10-12T19:59:59.363Z,15.30
2018-10-12T20:02:30.422Z,15.10
2018-10-12T20:05:04.176Z,14.80
2018-10-12T20:07:34.107Z,14.60
2018-10-12T20:10:04.013Z,14.60
2018-10-12T20:12:35.943Z,14.40
2018-10-12T20:15:09.351Z,14.20
2018-10-12T20:17:43.233Z,14.00
2018-10-12T20:20:13.092Z,13.90
2018-10-12T20:22:48.695Z,13.80
2018-10-12T20:25:35.460Z,13.80
2018-10-12T20:28:08.205Z,14.00
2018-10-12T20:30:42.259Z,14.20
2018-10-12T20:33:21.884Z,14.30
2018-10-12T20:35:54.403Z,14.30
2018-10-12T20:38:28.959Z,14.20
2018-10-12T20:40:58.887Z,14.00
2018-10-12T20:43:33.795Z,13.80
2018-10-12T20:46:04.699Z,13.70
2018-10-12T20:48:36.488Z,13.60
2018-10-12T20:51:09.763Z,13.80
2018-10-12T20:53:40.635Z,14.20
2018-10-12T20:56:12.587Z,14.60
2018-10-12T20:58:42.503Z,15.10
2018-10-12T21:01:12.447Z,15.40
2018-10-12T21:03:42.308Z,15.60
2018-10-12T21:06:23.251Z,15.80
2018-10-12T21:08:53.171Z,15.90
2018-10-12T21:11:29.811Z,15.90
2018-10-12T21:13:59.675Z,15.90
2018-10-12T21:16:29.543Z,15.90
2018-10-12T21:18:59.431Z,15.80
2018-10-12T21:21:29.655Z,15.80
2018-10-12T21:24:00.478Z,15.70
2018-10-12T21:26:33.651Z,15.80
2018-10-12T21:29:03.463Z,15.90
2018-10-12T21:31:33.295Z,15.90
2018-10-12T21:34:03.075Z,15.90
2018-10-12T21:36:38.239Z,15.90
2018-10-12T21:39:09.055Z,15.80
2018-10-12T21:41:39.099Z,15.70
2018-10-12T21:44:10.158Z,15.80
2018-10-12T21:46:40.085Z,15.80
2018-10-12T21:49:10.847Z,15.80
2018-10-12T21:51:40.691Z,15.70
2018-10-12T21:54:11.555Z,15.70
2018-10-12T21:56:41.431Z,15.70
2018-10-12T21:59:21.627Z,15.60
2018-10-12T22:01:51.515Z,15.60
2018-10-12T22:04:21.345Z,15.60
2018-10-12T22:06:51.255Z,15.60
2018-10-12T22:09:22.087Z,15.50
2018-10-12T22:11:52.023Z,15.50
2018-10-12T22:14:30.016Z,15.50
2018-10-12T22:16:59.923Z,15.40
2018-10-12T22:19:29.818Z,15.40
2018-10-12T22:22:00.638Z,15.40
2018-10-12T22:24:33.835Z,15.40
2018-10-12T22:27:04.719Z,15.40
2018-10-12T22:29:36.551Z,15.40
2018-10-12T22:32:06.390Z,15.40
2018-10-12T22:34:38.063Z,15.40
2018-10-12T22:37:12.867Z,15.00
2018-10-12T22:39:46.255Z,14.50
2018-10-12T22:42:17.247Z,14.20
2018-10-12T22:44:50.855Z,13.90
2018-10-12T22:47:20.687Z,13.90
2018-10-12T22:49:51.503Z,14.10
2018-10-12T22:52:21.331Z,14.30
2018-10-12T22:54:56.456Z,14.50
2018-10-12T22:57:28.339Z,14.70
2018-10-12T23:00:01.435Z,14.60
2018-10-12T23:02:31.335Z,14.60
2018-10-12T23:05:05.369Z,14.70
2018-10-12T23:07:35.724Z,14.80
2018-10-12T23:10:11.107Z,14.90
2018-10-12T23:12:41.040Z,14.90
2018-10-12T23:15:10.827Z,14.90
2018-10-12T23:17:40.787Z,15.00
2018-10-12T23:20:10.943Z,15.00
2018-10-12T23:22:40.783Z,15.00
2018-10-12T23:25:12.663Z,15.00
2018-10-12T23:27:42.567Z,15.00
2018-10-12T23:30:12.697Z,15.00
2018-10-12T23:32:52.135Z,15.00
2018-10-12T23:35:22.979Z,14.90
2018-10-12T23:37:53.790Z,14.90
2018-10-12T23:40:23.935Z,14.90
2018-10-12T23:42:55.327Z,14.90
2018-10-12T23:45:29.503Z,15.00
2018-10-12T23:47:59.379Z,15.00
2018-10-12T23:50:30.225Z,15.00
2018-10-12T23:53:01.114Z,14.90
2018-10-12T23:55:32.215Z,14.90
2018-10-12T23:58:05.898Z,14.90
